Strona główna
METAR-TAF:

METAR-TAF

Lotnisko :

Crawfordsville, Indiana, Stany Zjednoczone

Szerokość geograficzna: 39-58-34N, Długość geograficzna: 086-55-09W, wysokość: 244 m

Aktualna obserwacja pogody

Raport powstał 18 minut temu, godzina 02:15 UTC
Wiatr 3 kt od wschodnio-południowy wschód
Temperatura 20°C
Wilgotność 94%
Ciśnienie 1009 hPa
Widzialność: 16.1 km
bezchmurnie

METAR: KCFJ 040215Z AUTO 12003KT 10SM CLR 20/19 A2979 RMK AO2 LTG DSNT E AND SW T02020190

czas: 22:33 (02:33 UTC)


TAF: brakujący

Obserwacja i prognoza pogody dla ponad 4000 lotnisk (raport METAR i TAF).

Dostępne stacje oznaczono żółtymi i czerwonymi punktami na mapie.

Najedź kursorem aby zobaczyć nazwę stacji.

Kliknij aby zobaczyć obserwacje i prognozy pogody.

Aby zmienić mapę: kliknij na zielony przycisk z czarnym krzyżykiem, aby powiększyć; na zielony przycisk z myślnikiem, aby pomniejszyć; na zielone strzałki, aby przejść do map sąsiednich.


METAR-TAF: